Terminal Aerodrome Forecast
Issued by NWS

Home | Current Version | Previous Version | Text Only | Print | Product List | Glossary On
Versions: 1 2 3 4 5 6 7 8 9 10 11 12 13 14 15 16 17 18 19 20 21 22 23 24 25
000
FTUS41 KPBZ 250500
TAFZZV
TAF
KZZV 250520Z 2506/2606 VRB03KT P6SM SKC
     FM251600 22012G20KT P6SM SCT060
     FM252000 25012G20KT P6SM BKN025
     FM260000 28012KT P6SM SKC=

USA.gov is the U.S. government's official web portal to all federal, state and local government web resources and services.